createdAt,value
2018-05-17T00:02:18.496Z,15.53
2018-05-17T00:04:44.794Z,15.43
2018-05-17T00:07:11.081Z,15.26
2018-05-17T00:09:37.420Z,15.50
2018-05-17T00:12:03.703Z,15.68
2018-05-17T00:14:29.997Z,16.02
2018-05-17T00:16:56.295Z,16.08
2018-05-17T00:19:22.585Z,15.80
2018-05-17T00:21:48.878Z,15.67
2018-05-17T00:24:15.169Z,15.65
2018-05-17T00:26:41.460Z,15.49
2018-05-17T00:29:07.749Z,15.45
2018-05-17T00:31:34.095Z,15.34
2018-05-17T00:34:00.515Z,15.42
2018-05-17T00:36:26.717Z,15.44
2018-05-17T00:38:53.012Z,15.39
2018-05-17T00:41:19.341Z,15.72
2018-05-17T00:43:45.673Z,16.09
2018-05-17T00:46:11.963Z,16.15
2018-05-17T00:48:38.295Z,15.76
2018-05-17T00:51:04.670Z,15.39
2018-05-17T00:53:30.873Z,15.26
2018-05-17T00:55:57.164Z,15.36
2018-05-17T00:58:23.447Z,15.47
2018-05-17T01:00:49.778Z,15.42
2018-05-17T01:03:16.073Z,15.19
2018-05-17T01:08:08.699Z,15.66
2018-05-17T01:10:34.993Z,16.01
2018-05-17T01:13:01.325Z,15.89
2018-05-17T01:15:27.620Z,15.80
2018-05-17T01:17:53.912Z,15.98
2018-05-17T01:20:20.248Z,16.15
2018-05-17T01:22:46.532Z,15.84
2018-05-17T01:25:12.819Z,15.53
2018-05-17T01:27:39.155Z,15.45
2018-05-17T01:30:05.480Z,15.77
2018-05-17T01:32:31.768Z,15.84
2018-05-17T01:34:58.123Z,15.62
2018-05-17T01:37:24.352Z,15.47
2018-05-17T01:39:50.639Z,15.65
2018-05-17T01:42:16.932Z,15.93
2018-05-17T01:44:43.226Z,16.01
2018-05-17T01:47:09.527Z,15.69
2018-05-17T01:49:35.861Z,15.41
2018-05-17T01:52:02.163Z,15.15
2018-05-17T01:54:28.474Z,15.38
2018-05-17T01:56:54.750Z,15.51
2018-05-17T01:59:21.094Z,15.40
2018-05-17T02:01:47.390Z,15.17
2018-05-17T02:04:13.681Z,15.14
2018-05-17T02:06:39.983Z,15.06
2018-05-17T02:09:06.275Z,14.87
2018-05-17T02:11:32.604Z,14.88
2018-05-17T02:13:58.900Z,15.01
2018-05-17T02:16:25.186Z,15.03
2018-05-17T02:18:51.481Z,14.83
2018-05-17T02:21:17.778Z,14.71
2018-05-17T02:23:44.068Z,14.49
2018-05-17T02:26:10.382Z,14.35
2018-05-17T02:28:36.666Z,14.25
2018-05-17T02:31:02.964Z,14.23
2018-05-17T02:33:29.259Z,14.20
2018-05-17T02:35:55.557Z,14.14
2018-05-17T02:38:21.855Z,14.28
2018-05-17T02:40:48.147Z,14.68
2018-05-17T02:43:14.440Z,14.55
2018-05-17T02:45:40.727Z,14.45
2018-05-17T02:48:07.025Z,14.34
2018-05-17T02:50:33.321Z,14.09
2018-05-17T02:52:59.608Z,14.01
2018-05-17T02:55:25.901Z,14.03
2018-05-17T02:57:52.203Z,14.07
2018-05-17T03:00:18.495Z,14.04
2018-05-17T03:02:44.793Z,14.20
2018-05-17T03:05:11.092Z,14.53
2018-05-17T03:07:37.379Z,14.25
2018-05-17T03:10:03.670Z,14.25
2018-05-17T03:12:29.956Z,14.21
2018-05-17T03:14:56.249Z,14.15
2018-05-17T03:17:22.541Z,13.98
2018-05-17T03:19:48.833Z,13.98
2018-05-17T03:22:15.128Z,14.03
2018-05-17T03:24:41.416Z,14.17
2018-05-17T03:27:07.715Z,14.17
2018-05-17T03:29:34.000Z,14.04
2018-05-17T03:32:00.293Z,14.11
2018-05-17T03:34:26.597Z,14.16
2018-05-17T03:36:52.874Z,14.28
2018-05-17T03:39:19.171Z,14.19
2018-05-17T03:41:45.459Z,14.35
2018-05-17T03:44:11.764Z,14.37
2018-05-17T03:46:38.065Z,14.15
2018-05-17T03:49:04.351Z,14.09
2018-05-17T03:51:30.655Z,14.23
2018-05-17T03:53:56.959Z,14.35
2018-05-17T03:56:23.247Z,14.79
2018-05-17T03:58:49.542Z,15.26
2018-05-17T04:01:15.839Z,15.27
2018-05-17T04:03:42.130Z,15.20
2018-05-17T04:06:08.425Z,15.26
2018-05-17T04:08:34.808Z,15.41
2018-05-17T04:11:01.056Z,15.39
2018-05-17T04:13:27.347Z,15.20
2018-05-17T04:15:53.636Z,15.28
2018-05-17T04:18:19.947Z,15.27
2018-05-17T04:20:46.227Z,15.27
2018-05-17T04:23:12.566Z,15.34
2018-05-17T04:25:38.851Z,15.36
2018-05-17T04:28:05.143Z,15.32
2018-05-17T04:30:31.450Z,15.23
2018-05-17T04:32:57.778Z,15.05
2018-05-17T04:35:24.075Z,15.15
2018-05-17T04:37:50.356Z,15.57
2018-05-17T04:40:16.644Z,16.09
2018-05-17T04:42:42.951Z,16.53
2018-05-17T04:45:09.255Z,16.75
2018-05-17T04:47:35.553Z,16.87
2018-05-17T04:50:01.851Z,16.55
2018-05-17T04:52:28.137Z,16.42
2018-05-17T04:54:54.473Z,16.63
2018-05-17T04:57:20.763Z,17.04
2018-05-17T04:59:47.097Z,17.24
2018-05-17T05:02:13.394Z,17.13
2018-05-17T05:04:39.684Z,16.82
2018-05-17T05:07:05.994Z,16.91
2018-05-17T05:09:32.368Z,17.41
2018-05-17T05:11:58.622Z,17.27
2018-05-17T05:14:24.915Z,18.73
2018-05-17T05:16:51.251Z,20.16
2018-05-17T05:19:17.543Z,17.99
2018-05-17T05:21:43.831Z,17.70
2018-05-17T05:24:10.122Z,17.27
2018-05-17T05:26:36.413Z,17.18
2018-05-17T05:29:02.718Z,17.48
2018-05-17T05:31:29.048Z,18.86
2018-05-17T05:33:55.345Z,19.14
2018-05-17T05:36:21.637Z,17.98
2018-05-17T05:38:47.975Z,17.46
2018-05-17T05:41:14.265Z,18.88
2018-05-17T05:43:40.608Z,21.43
2018-05-17T05:46:06.906Z,21.11
2018-05-17T05:48:33.249Z,22.37
2018-05-17T05:50:59.536Z,22.55
2018-05-17T05:53:30.247Z,22.31
2018-05-17T05:55:52.111Z,22.97
2018-05-17T05:58:18.400Z,23.27
2018-05-17T06:00:44.732Z,23.52
2018-05-17T06:03:11.020Z,23.70
2018-05-17T06:05:37.311Z,24.59
2018-05-17T06:08:03.631Z,24.20
2018-05-17T06:10:29.922Z,24.55
2018-05-17T06:12:56.210Z,23.87
2018-05-17T06:15:22.512Z,24.10
2018-05-17T06:17:48.810Z,24.01
2018-05-17T06:20:15.104Z,24.80
2018-05-17T06:22:41.405Z,24.89
2018-05-17T06:25:07.704Z,25.52
2018-05-17T06:27:34.026Z,25.50
2018-05-17T06:30:00.330Z,25.33
2018-05-17T06:32:26.626Z,25.89
2018-05-17T06:34:52.929Z,26.60
2018-05-17T06:37:19.221Z,26.52
2018-05-17T06:39:45.516Z,27.02
2018-05-17T06:42:11.815Z,27.00
2018-05-17T06:44:38.109Z,27.12
2018-05-17T06:47:04.405Z,26.50
2018-05-17T06:49:30.693Z,25.70
2018-05-17T06:51:57.073Z,25.48
2018-05-17T06:54:23.279Z,25.70
2018-05-17T06:56:49.576Z,26.21
2018-05-17T06:59:15.873Z,25.99
2018-05-17T07:01:42.161Z,25.97
2018-05-17T07:04:08.455Z,26.50
2018-05-17T07:06:34.792Z,26.69
2018-05-17T07:09:01.051Z,26.49
2018-05-17T07:11:27.335Z,25.45
2018-05-17T07:13:53.632Z,25.96
2018-05-17T07:16:19.923Z,26.62
2018-05-17T07:18:46.515Z,26.28
2018-05-17T07:21:12.531Z,26.11
2018-05-17T07:23:38.827Z,26.93
2018-05-17T07:26:05.125Z,27.20
2018-05-17T07:28:31.433Z,26.33
2018-05-17T07:30:57.731Z,25.93
2018-05-17T07:33:24.040Z,25.71
2018-05-17T07:35:50.378Z,26.50
2018-05-17T07:38:16.670Z,26.37
2018-05-17T07:40:42.959Z,26.85
2018-05-17T07:43:09.303Z,27.05
2018-05-17T07:45:35.586Z,27.03
2018-05-17T07:48:01.885Z,25.29
2018-05-17T07:50:28.178Z,26.05
2018-05-17T07:52:54.527Z,26.37
2018-05-17T07:55:20.821Z,25.24
2018-05-17T07:57:47.178Z,25.76
2018-05-17T08:00:13.462Z,26.42
2018-05-17T08:02:39.748Z,27.10
2018-05-17T08:05:06.048Z,27.81
2018-05-17T08:07:32.386Z,28.06
2018-05-17T08:09:58.686Z,27.88
2018-05-17T08:12:24.985Z,27.78
2018-05-17T08:14:51.327Z,27.15
2018-05-17T08:17:17.627Z,27.01
2018-05-17T08:19:43.915Z,27.29
2018-05-17T08:22:10.208Z,27.22
2018-05-17T08:24:36.498Z,26.57
2018-05-17T08:27:02.802Z,27.27
2018-05-17T08:29:29.093Z,27.32
2018-05-17T08:31:55.433Z,28.22
2018-05-17T08:34:21.764Z,28.22
2018-05-17T08:36:48.167Z,26.85
2018-05-17T08:39:14.344Z,26.74
2018-05-17T08:41:40.638Z,27.17
2018-05-17T08:44:06.978Z,27.84
2018-05-17T08:46:33.269Z,28.07
2018-05-17T08:48:59.659Z,27.53
2018-05-17T08:51:25.959Z,27.93
2018-05-17T08:53:52.261Z,27.83
2018-05-17T08:56:18.549Z,28.01
2018-05-17T08:58:44.852Z,28.17
2018-05-17T09:01:11.145Z,28.48
2018-05-17T09:03:37.449Z,27.96
2018-05-17T09:06:03.752Z,27.82
2018-05-17T09:08:30.047Z,28.02
2018-05-17T09:10:56.375Z,28.67
2018-05-17T09:13:22.676Z,27.04
2018-05-17T09:15:48.970Z,27.57
2018-05-17T09:18:15.260Z,28.23
2018-05-17T09:20:41.549Z,28.25
2018-05-17T09:23:07.840Z,27.43
2018-05-17T09:25:34.142Z,27.89
2018-05-17T09:28:00.432Z,27.45
2018-05-17T09:30:26.762Z,27.64
2018-05-17T09:32:53.053Z,27.95
2018-05-17T09:35:19.356Z,28.31
2018-05-17T09:37:45.669Z,27.84
2018-05-17T09:40:12.004Z,27.21
2018-05-17T09:42:38.291Z,26.57
2018-05-17T09:45:04.586Z,25.70
2018-05-17T09:47:30.905Z,26.36
2018-05-17T09:49:57.169Z,27.49
2018-05-17T09:52:23.461Z,28.02
2018-05-17T09:54:49.761Z,27.80
2018-05-17T09:57:16.051Z,27.96
2018-05-17T09:59:42.346Z,27.99
2018-05-17T10:02:08.673Z,27.46
2018-05-17T10:04:34.968Z,27.94
2018-05-17T10:07:01.267Z,28.84
2018-05-17T10:09:27.564Z,28.30
2018-05-17T10:11:53.853Z,27.03
2018-05-17T10:14:20.139Z,27.81
2018-05-17T10:16:46.472Z,28.12
2018-05-17T10:19:12.781Z,27.87
2018-05-17T10:21:39.073Z,27.84
2018-05-17T10:24:05.372Z,28.42
2018-05-17T10:26:31.669Z,28.00
2018-05-17T10:28:57.999Z,27.77
2018-05-17T10:31:24.291Z,28.29
2018-05-17T10:33:50.584Z,27.45
2018-05-17T10:36:16.880Z,27.16
2018-05-17T10:38:43.171Z,26.32
2018-05-17T10:41:09.490Z,26.52
2018-05-17T10:43:35.779Z,25.39
2018-05-17T10:46:02.110Z,25.98
2018-05-17T10:48:28.391Z,26.16
2018-05-17T10:50:54.680Z,27.02
2018-05-17T10:53:20.983Z,27.81
2018-05-17T10:55:47.273Z,27.89
2018-05-17T10:58:13.566Z,28.00
2018-05-17T11:00:39.892Z,27.87
2018-05-17T11:03:06.169Z,28.09
2018-05-17T11:05:32.777Z,27.76
2018-05-17T11:07:59.007Z,28.33
2018-05-17T11:10:25.303Z,28.57
2018-05-17T11:12:51.594Z,28.89
2018-05-17T11:15:17.902Z,28.05
2018-05-17T11:17:44.195Z,28.64
2018-05-17T11:20:10.489Z,28.46
2018-05-17T11:22:36.796Z,27.06
2018-05-17T11:25:03.079Z,27.39
2018-05-17T11:27:29.376Z,27.44
2018-05-17T11:29:55.667Z,27.56
2018-05-17T11:32:21.955Z,27.88
2018-05-17T11:34:48.285Z,27.56
2018-05-17T11:37:14.582Z,28.36
2018-05-17T11:39:40.883Z,28.01
2018-05-17T11:42:07.185Z,27.91
2018-05-17T11:44:33.479Z,27.83
2018-05-17T11:46:59.786Z,27.78
2018-05-17T11:49:26.071Z,27.43
2018-05-17T11:51:52.369Z,26.71
2018-05-17T11:54:18.668Z,26.58
2018-05-17T11:56:44.968Z,27.33
2018-05-17T11:59:11.264Z,27.88
2018-05-17T12:01:37.564Z,27.75
2018-05-17T12:04:03.859Z,27.97
2018-05-17T12:06:30.153Z,28.01
2018-05-17T12:08:57.382Z,27.27
2018-05-17T12:11:23.677Z,27.32
2018-05-17T12:13:49.968Z,26.91
2018-05-17T12:16:16.271Z,27.17
2018-05-17T12:18:42.556Z,27.55
2018-05-17T12:21:08.870Z,27.67
2018-05-17T12:23:35.152Z,27.25
2018-05-17T12:26:01.480Z,27.61
2018-05-17T12:28:27.814Z,27.78
2018-05-17T12:30:54.099Z,27.98
2018-05-17T12:33:20.389Z,27.86
2018-05-17T12:35:46.684Z,28.34
2018-05-17T12:38:13.129Z,28.14
2018-05-17T12:40:39.308Z,28.13
2018-05-17T12:43:05.595Z,28.08
2018-05-17T12:45:31.931Z,27.81
2018-05-17T12:47:58.225Z,27.16
2018-05-17T12:50:24.521Z,26.96
2018-05-17T12:52:50.914Z,27.58
2018-05-17T12:55:17.135Z,29.37
2018-05-17T12:57:43.469Z,30.75
2018-05-17T13:00:09.762Z,30.38
2018-05-17T13:02:36.052Z,30.23
2018-05-17T13:05:02.384Z,27.81
2018-05-17T13:07:28.696Z,26.03
2018-05-17T13:09:54.984Z,28.90
2018-05-17T13:12:21.275Z,29.65
2018-05-17T13:14:47.567Z,30.65
2018-05-17T13:17:13.855Z,30.90
2018-05-17T13:19:40.176Z,30.31
2018-05-17T13:22:06.469Z,28.28
2018-05-17T13:24:32.764Z,27.82
2018-05-17T13:26:59.086Z,26.68
2018-05-17T13:29:25.382Z,25.77
2018-05-17T13:31:51.679Z,25.64
2018-05-17T13:34:18.015Z,25.70
2018-05-17T13:36:44.313Z,25.55
2018-05-17T13:39:10.646Z,25.66
2018-05-17T13:41:36.949Z,25.39
2018-05-17T13:44:03.527Z,24.88
2018-05-17T13:46:29.824Z,24.73
2018-05-17T13:48:56.131Z,24.80
2018-05-17T13:51:22.431Z,24.93
2018-05-17T13:53:48.720Z,25.05
2018-05-17T13:56:15.026Z,25.06
2018-05-17T13:58:41.317Z,24.69
2018-05-17T14:01:07.683Z,24.58
2018-05-17T14:03:33.927Z,24.49
2018-05-17T14:06:00.222Z,24.44
2018-05-17T14:08:26.522Z,24.37
2018-05-17T14:10:52.812Z,24.34
2018-05-17T14:13:19.121Z,24.35
2018-05-17T14:15:45.423Z,24.15
2018-05-17T14:18:11.755Z,24.20
2018-05-17T14:20:38.063Z,24.09
2018-05-17T14:23:04.424Z,24.13
2018-05-17T14:25:30.648Z,24.06
2018-05-17T14:27:56.948Z,24.10
2018-05-17T14:30:23.268Z,24.19
2018-05-17T14:32:49.556Z,24.15
2018-05-17T14:35:15.858Z,24.15
2018-05-17T14:37:42.166Z,24.18
2018-05-17T14:40:08.454Z,24.06
2018-05-17T14:42:34.753Z,24.10
2018-05-17T14:45:01.042Z,24.13
2018-05-17T14:47:27.333Z,24.17
2018-05-17T14:49:53.631Z,24.29
2018-05-17T14:52:19.925Z,24.34
2018-05-17T14:54:46.219Z,24.35
2018-05-17T14:57:12.514Z,24.37
2018-05-17T14:59:38.822Z,24.48
2018-05-17T15:02:05.116Z,24.47
2018-05-17T15:04:31.404Z,24.24
2018-05-17T15:06:57.697Z,24.20
2018-05-17T15:09:23.993Z,24.11
2018-05-17T15:11:50.315Z,24.16
2018-05-17T15:14:16.610Z,24.20
2018-05-17T15:16:42.917Z,24.20
2018-05-17T15:19:09.241Z,24.19
2018-05-17T15:21:35.540Z,24.11
2018-05-17T15:24:01.828Z,24.03
2018-05-17T15:26:28.119Z,24.07
2018-05-17T15:28:54.409Z,23.93
2018-05-17T15:31:20.708Z,23.91
2018-05-17T15:33:47.002Z,23.92
2018-05-17T15:36:13.387Z,23.81
2018-05-17T15:38:39.611Z,23.70
2018-05-17T15:41:05.901Z,23.64
2018-05-17T15:43:32.189Z,23.60
2018-05-17T15:45:58.516Z,23.61
2018-05-17T15:48:24.809Z,23.69
2018-05-17T15:50:51.102Z,23.73
2018-05-17T15:53:17.387Z,23.70
2018-05-17T15:55:43.680Z,23.61
2018-05-17T15:58:09.980Z,23.49
2018-05-17T16:00:36.271Z,23.51
2018-05-17T16:03:02.563Z,23.53
2018-05-17T16:05:28.857Z,23.55
2018-05-17T16:07:55.149Z,23.52
2018-05-17T16:10:21.444Z,23.50
2018-05-17T16:12:47.773Z,23.49
2018-05-17T16:15:14.125Z,23.42
2018-05-17T16:17:40.358Z,23.35
2018-05-17T16:20:06.652Z,23.37
2018-05-17T16:22:32.941Z,23.31
2018-05-17T16:24:59.231Z,23.28
2018-05-17T16:27:25.564Z,23.11
2018-05-17T16:29:51.818Z,22.97
2018-05-17T16:32:18.232Z,22.91
2018-05-17T16:34:44.530Z,22.85
2018-05-17T16:37:10.823Z,22.77
2018-05-17T16:39:37.119Z,22.62
2018-05-17T16:42:03.422Z,22.54
2018-05-17T16:44:29.715Z,22.52
2018-05-17T16:46:56.012Z,22.51
2018-05-17T16:49:22.301Z,22.53
2018-05-17T16:51:48.595Z,22.50
2018-05-17T16:54:14.926Z,22.47
2018-05-17T16:56:41.224Z,22.44
2018-05-17T16:59:07.512Z,22.37
2018-05-17T17:01:33.806Z,22.28
2018-05-17T17:04:00.098Z,22.18
2018-05-17T17:06:26.402Z,22.11
2018-05-17T17:08:52.703Z,22.06
2018-05-17T17:11:18.997Z,21.95
2018-05-17T17:13:45.307Z,21.93
2018-05-17T17:16:11.635Z,21.89
2018-05-17T17:18:37.949Z,21.81
2018-05-17T17:21:04.247Z,21.72
2018-05-17T17:23:30.552Z,21.63
2018-05-17T17:25:56.845Z,21.57
2018-05-17T17:28:23.140Z,21.49
2018-05-17T17:30:49.483Z,21.40
2018-05-17T17:33:15.734Z,21.29
2018-05-17T17:35:42.035Z,21.28
2018-05-17T17:38:08.331Z,21.12
2018-05-17T17:40:34.625Z,21.02
2018-05-17T17:43:00.960Z,20.80
2018-05-17T17:45:27.295Z,20.68
2018-05-17T17:47:53.596Z,20.55
2018-05-17T17:50:20.013Z,20.40
2018-05-17T17:52:46.359Z,20.29
2018-05-17T17:55:12.656Z,20.20
2018-05-17T17:57:38.994Z,20.16
2018-05-17T18:00:05.286Z,20.10
2018-05-17T18:02:31.580Z,20.02
2018-05-17T18:04:57.924Z,19.98
2018-05-17T18:07:24.212Z,19.92
2018-05-17T18:09:50.511Z,19.81
2018-05-17T18:12:16.806Z,19.76
2018-05-17T18:14:43.163Z,19.64
2018-05-17T18:17:09.464Z,19.66
2018-05-17T18:19:35.788Z,19.60
2018-05-17T18:22:02.081Z,19.58
2018-05-17T18:24:28.416Z,19.52
2018-05-17T18:26:54.699Z,19.54
2018-05-17T18:29:20.989Z,19.41
2018-05-17T18:31:47.297Z,19.42
2018-05-17T18:34:13.588Z,19.38
2018-05-17T18:36:39.940Z,19.30
2018-05-17T18:39:06.200Z,19.25
2018-05-17T18:41:32.496Z,19.19
2018-05-17T18:43:58.837Z,19.13
2018-05-17T18:46:25.123Z,19.06
2018-05-17T18:48:51.474Z,19.00
2018-05-17T18:51:17.759Z,18.91
2018-05-17T18:53:44.055Z,18.83
2018-05-17T18:56:10.383Z,18.87
2018-05-17T18:58:36.677Z,18.92
2018-05-17T19:01:02.971Z,18.99
2018-05-17T19:03:29.259Z,18.97
2018-05-17T19:05:55.558Z,18.97
2018-05-17T19:08:21.856Z,18.88
2018-05-17T19:10:48.153Z,18.82
2018-05-17T19:13:14.455Z,18.85
2018-05-17T19:15:40.745Z,18.73
2018-05-17T19:18:07.081Z,18.72
2018-05-17T19:20:33.374Z,18.83
2018-05-17T19:22:59.671Z,18.76
2018-05-17T19:25:25.968Z,18.79
2018-05-17T19:27:52.261Z,18.86
2018-05-17T19:30:18.547Z,18.92
2018-05-17T19:32:44.849Z,18.92
2018-05-17T19:35:11.147Z,18.89
2018-05-17T19:37:37.454Z,18.75
2018-05-17T19:40:03.739Z,18.73
2018-05-17T19:42:30.031Z,18.58
2018-05-17T19:44:56.319Z,18.38
2018-05-17T19:47:22.704Z,18.23
2018-05-17T19:49:48.913Z,18.23
2018-05-17T19:52:15.203Z,18.24
2018-05-17T19:54:41.491Z,18.22
2018-05-17T19:57:07.787Z,18.30
2018-05-17T19:59:34.306Z,18.18
2018-05-17T20:02:00.405Z,18.10
2018-05-17T20:04:26.696Z,17.98
2018-05-17T20:06:53.031Z,18.04
2018-05-17T20:09:19.319Z,18.16
2018-05-17T20:11:45.615Z,18.09
2018-05-17T20:14:11.914Z,17.94
2018-05-17T20:16:38.212Z,17.90
2018-05-17T20:19:04.506Z,17.96
2018-05-17T20:21:30.800Z,17.99
2018-05-17T20:23:57.096Z,18.02
2018-05-17T20:26:23.428Z,17.89
2018-05-17T20:28:49.719Z,17.94
2018-05-17T20:31:16.011Z,18.13
2018-05-17T20:33:42.305Z,18.23
2018-05-17T20:36:08.605Z,18.23
2018-05-17T20:38:34.897Z,18.39
2018-05-17T20:41:01.245Z,18.48
2018-05-17T20:43:27.484Z,18.52
2018-05-17T20:45:53.779Z,18.53
2018-05-17T20:48:20.072Z,18.61
2018-05-17T20:50:46.364Z,18.64
2018-05-17T20:53:12.656Z,18.58
2018-05-17T20:55:38.963Z,18.58
2018-05-17T20:58:05.274Z,18.60
2018-05-17T21:00:31.588Z,18.43
2018-05-17T21:02:57.853Z,18.17
2018-05-17T21:05:24.176Z,18.18
2018-05-17T21:07:50.457Z,18.22
2018-05-17T21:10:16.748Z,18.30
2018-05-17T21:12:43.114Z,18.21
2018-05-17T21:15:09.333Z,18.17
2018-05-17T21:17:35.624Z,17.97
2018-05-17T21:20:01.910Z,17.84
2018-05-17T21:22:28.205Z,17.89
2018-05-17T21:24:54.495Z,17.80
2018-05-17T21:27:20.779Z,17.86
2018-05-17T21:29:47.073Z,17.63
2018-05-17T21:32:13.365Z,17.71
2018-05-17T21:34:39.709Z,17.76
2018-05-17T21:37:05.999Z,17.85
2018-05-17T21:39:32.661Z,18.00
2018-05-17T21:41:58.894Z,17.86
2018-05-17T21:44:25.187Z,17.47
2018-05-17T21:46:51.467Z,17.22
2018-05-17T21:49:17.801Z,17.33
2018-05-17T21:51:44.109Z,17.30
2018-05-17T21:54:10.397Z,17.08
2018-05-17T21:56:36.746Z,17.08
2018-05-17T21:59:03.031Z,17.38
2018-05-17T22:01:29.319Z,17.58
2018-05-17T22:03:55.642Z,17.73
2018-05-17T22:06:21.938Z,17.73
2018-05-17T22:08:48.236Z,17.70
2018-05-17T22:11:14.527Z,17.85
2018-05-17T22:13:40.822Z,17.95
2018-05-17T22:16:07.116Z,17.83
2018-05-17T22:18:33.447Z,17.65
2018-05-17T22:20:59.748Z,17.54
2018-05-17T22:23:26.097Z,17.39
2018-05-17T22:25:52.342Z,17.31
2018-05-17T22:28:18.628Z,17.45
2018-05-17T22:30:44.961Z,17.48
2018-05-17T22:33:11.255Z,17.53
2018-05-17T22:35:37.549Z,17.46
2018-05-17T22:38:03.837Z,17.50
2018-05-17T22:40:30.170Z,17.48
2018-05-17T22:42:56.456Z,17.38
2018-05-17T22:45:22.747Z,17.00
2018-05-17T22:47:49.041Z,16.75
2018-05-17T22:50:15.333Z,16.60
2018-05-17T22:52:41.628Z,16.73
2018-05-17T22:55:07.965Z,16.96
2018-05-17T22:57:34.265Z,16.80
2018-05-17T23:00:00.552Z,16.42
2018-05-17T23:02:26.849Z,16.24
2018-05-17T23:04:53.139Z,16.20
2018-05-17T23:07:19.426Z,16.41
2018-05-17T23:09:45.715Z,16.33
2018-05-17T23:12:12.005Z,16.23
2018-05-17T23:14:38.301Z,16.06
2018-05-17T23:17:04.587Z,15.98
2018-05-17T23:19:30.878Z,16.07
2018-05-17T23:21:57.167Z,16.20
2018-05-17T23:24:23.502Z,16.26
2018-05-17T23:26:49.795Z,16.21
2018-05-17T23:29:16.085Z,16.14
2018-05-17T23:31:42.377Z,16.05
2018-05-17T23:34:08.707Z,15.97
2018-05-17T23:36:35.011Z,15.83
2018-05-17T23:39:01.304Z,15.91
2018-05-17T23:41:27.601Z,16.13
2018-05-17T23:43:53.888Z,16.17
2018-05-17T23:46:20.175Z,16.11
2018-05-17T23:48:46.471Z,16.03
2018-05-17T23:51:12.763Z,15.85
2018-05-17T23:53:39.055Z,15.63
2018-05-17T23:56:05.358Z,15.31
2018-05-17T23:58:31.655Z,15.21
